createdAt,value
2018-05-13T00:01:52.702Z,34.80
2018-05-13T00:04:21.013Z,34.17
2018-05-13T00:06:50.216Z,37.73
2018-05-13T00:09:18.486Z,35.90
2018-05-13T00:11:46.753Z,35.07
2018-05-13T00:14:15.071Z,35.77
2018-05-13T00:16:43.487Z,35.27
2018-05-13T00:19:12.528Z,34.37
2018-05-13T00:21:40.817Z,35.67
2018-05-13T00:24:09.086Z,35.60
2018-05-13T00:26:37.393Z,34.77
2018-05-13T00:29:05.669Z,36.93
2018-05-13T00:31:33.940Z,35.73
2018-05-13T00:34:02.232Z,34.20
2018-05-13T00:36:30.502Z,34.80
2018-05-13T00:38:58.783Z,39.07
2018-05-13T00:41:27.057Z,35.03
2018-05-13T00:43:55.381Z,36.23
2018-05-13T00:46:23.659Z,33.80
2018-05-13T00:48:52.166Z,36.30
2018-05-13T00:51:20.448Z,34.50
2018-05-13T00:53:48.718Z,33.80
2018-05-13T00:56:17.024Z,35.50
2018-05-13T00:58:46.195Z,34.75
2018-05-13T01:01:14.492Z,34.50
2018-05-13T01:03:42.770Z,34.70
2018-05-13T01:06:11.093Z,37.00
2018-05-13T01:08:39.334Z,34.17
2018-05-13T01:11:07.600Z,37.90
2018-05-13T01:13:35.922Z,34.30
2018-05-13T01:16:04.196Z,35.87
2018-05-13T01:18:33.524Z,35.07
2018-05-13T01:21:02.113Z,34.90
2018-05-13T01:23:30.391Z,33.97
2018-05-13T01:25:58.733Z,34.70
2018-05-13T01:28:27.024Z,37.73
2018-05-13T01:30:56.103Z,35.47
2018-05-13T01:33:25.178Z,35.00
2018-05-13T01:35:53.424Z,35.97
2018-05-13T01:38:21.720Z,34.77
2018-05-13T01:40:50.004Z,34.87
2018-05-13T01:43:19.111Z,38.53
2018-05-13T01:45:47.369Z,37.17
2018-05-13T01:48:15.642Z,35.67
2018-05-13T01:50:43.941Z,35.07
2018-05-13T01:53:12.269Z,36.67
2018-05-13T01:55:40.591Z,34.20
2018-05-13T01:58:08.868Z,35.33
2018-05-13T02:00:37.125Z,36.40
2018-05-13T02:03:05.426Z,36.70
2018-05-13T02:05:33.712Z,35.67
2018-05-13T02:08:02.033Z,35.63
2018-05-13T02:10:30.335Z,35.00
2018-05-13T02:12:58.598Z,36.63
2018-05-13T02:15:27.547Z,37.13
2018-05-13T02:17:56.079Z,34.93
2018-05-13T02:20:25.113Z,35.20
2018-05-13T02:22:53.396Z,35.77
2018-05-13T02:25:21.677Z,34.80
2018-05-13T02:27:49.987Z,35.30
2018-05-13T02:30:19.347Z,37.73
2018-05-13T02:32:47.623Z,37.27
2018-05-13T02:35:15.899Z,37.87
2018-05-13T02:37:44.181Z,38.30
2018-05-13T02:40:12.456Z,39.60
2018-05-13T02:42:40.765Z,39.40
2018-05-13T02:45:09.812Z,39.60
2018-05-13T02:47:38.110Z,41.43
2018-05-13T02:50:06.380Z,39.37
2018-05-13T02:52:34.669Z,39.87
2018-05-13T02:55:02.959Z,38.30
2018-05-13T02:57:31.247Z,38.70
2018-05-13T02:59:59.540Z,40.00
2018-05-13T03:02:27.814Z,40.60
2018-05-13T03:04:56.857Z,39.40
2018-05-13T03:07:25.157Z,38.87
2018-05-13T03:09:54.223Z,38.23
2018-05-13T03:12:22.525Z,38.67
2018-05-13T03:14:50.840Z,36.97
2018-05-13T03:17:19.095Z,35.40
2018-05-13T03:19:47.393Z,38.23
2018-05-13T03:22:16.428Z,34.30
2018-05-13T03:24:44.754Z,35.20
2018-05-13T03:27:13.069Z,35.87
2018-05-13T03:29:41.336Z,36.57
2018-05-13T03:32:09.633Z,36.60
2018-05-13T03:34:37.909Z,35.20
2018-05-13T03:37:06.207Z,37.50
2018-05-13T03:39:34.466Z,37.73
2018-05-13T03:42:03.513Z,36.87
2018-05-13T03:44:31.808Z,34.87
2018-05-13T03:47:00.833Z,35.50
2018-05-13T03:49:29.170Z,36.57
2018-05-13T03:51:57.461Z,39.83
2018-05-13T03:54:26.484Z,36.60
2018-05-13T03:56:54.786Z,38.00
2018-05-13T03:59:23.065Z,34.77
2018-05-13T04:01:51.358Z,35.90
2018-05-13T04:04:19.805Z,36.17
2018-05-13T04:06:48.054Z,34.83
2018-05-13T04:12:30.222Z,35.57
2018-05-13T04:15:11.209Z,35.33
2018-05-13T04:17:39.475Z,36.63
2018-05-13T04:20:07.771Z,37.10
2018-05-13T04:22:36.058Z,35.70
2018-05-13T04:25:04.350Z,35.00
2018-05-13T04:27:32.633Z,36.23
2018-05-13T04:30:00.915Z,35.00
2018-05-13T04:32:29.978Z,33.30
2018-05-13T04:34:58.236Z,35.77
2018-05-13T04:37:26.576Z,34.73
2018-05-13T04:39:54.850Z,34.10
2018-05-13T04:42:23.907Z,35.33
2018-05-13T04:44:52.182Z,34.43
2018-05-13T04:47:20.466Z,35.17
2018-05-13T04:49:48.755Z,39.50
2018-05-13T04:52:17.023Z,35.00
2018-05-13T04:54:45.317Z,36.00
2018-05-13T04:57:13.573Z,53.17
2018-05-13T04:59:41.849Z,43.13
2018-05-13T05:02:10.147Z,36.60
2018-05-13T05:04:38.436Z,34.53
2018-05-13T05:07:06.726Z,33.57
2018-05-13T05:09:35.769Z,33.10
2018-05-13T05:12:04.046Z,33.63
2018-05-13T05:14:32.328Z,31.60
2018-05-13T05:17:00.594Z,32.57
2018-05-13T05:19:28.886Z,31.50
2018-05-13T05:21:57.179Z,34.33
2018-05-13T05:24:25.479Z,30.00
2018-05-13T05:26:53.771Z,30.60
2018-05-13T05:29:22.801Z,31.10
2018-05-13T05:31:51.109Z,30.60
2018-05-13T05:34:19.366Z,30.17
2018-05-13T05:36:47.644Z,30.43
2018-05-13T05:39:15.963Z,29.60
2018-05-13T05:41:44.998Z,29.63
2018-05-13T05:44:13.310Z,28.23
2018-05-13T05:46:41.570Z,29.67
2018-05-13T05:49:11.362Z,29.97
2018-05-13T05:51:39.616Z,27.60
2018-05-13T05:54:08.743Z,30.17
2018-05-13T05:56:37.030Z,28.70
2018-05-13T05:59:05.302Z,26.30
2018-05-13T06:01:33.591Z,26.37
2018-05-13T06:04:01.858Z,26.27
2018-05-13T06:06:30.163Z,27.27
2018-05-13T06:08:58.421Z,25.00
2018-05-13T06:11:26.696Z,24.23
2018-05-13T06:13:55.024Z,23.90
2018-05-13T06:16:23.311Z,22.53
2018-05-13T06:18:52.380Z,22.93
2018-05-13T06:21:20.654Z,22.63
2018-05-13T06:23:48.968Z,21.80
2018-05-13T06:26:18.014Z,22.40
2018-05-13T06:28:47.806Z,19.55
2018-05-13T06:31:16.103Z,19.57
2018-05-13T06:33:44.377Z,18.33
2018-05-13T06:36:12.673Z,17.77
2018-05-13T06:38:40.938Z,16.30
2018-05-13T06:41:09.243Z,15.90
2018-05-13T06:43:37.515Z,15.50
2018-05-13T06:46:05.800Z,15.37
2018-05-13T06:48:34.105Z,14.13
2018-05-13T06:51:02.579Z,12.27
2018-05-13T06:53:30.743Z,14.67
2018-05-13T06:55:59.123Z,12.83
2018-05-13T06:58:27.426Z,15.07
2018-05-13T07:00:55.745Z,12.20
2018-05-13T07:03:24.822Z,11.00
2018-05-13T07:05:53.114Z,10.90
2018-05-13T07:08:21.698Z,11.33
2018-05-13T07:10:49.976Z,10.80
2018-05-13T07:13:18.241Z,8.57
2018-05-13T07:15:46.540Z,11.57
2018-05-13T07:18:14.825Z,9.10
2018-05-13T07:20:43.106Z,9.50
2018-05-13T07:23:12.307Z,9.60
2018-05-13T07:25:40.584Z,9.43
2018-05-13T07:28:08.869Z,7.57
2018-05-13T07:30:37.209Z,10.77
2018-05-13T07:33:05.478Z,8.43
2018-05-13T07:35:33.760Z,9.33
2018-05-13T07:38:02.064Z,8.43
2018-05-13T07:40:30.348Z,8.30
2018-05-13T07:42:58.617Z,8.03
2018-05-13T07:45:26.909Z,8.20
2018-05-13T07:47:55.172Z,7.70
2018-05-13T07:50:23.449Z,8.33
2018-05-13T07:52:51.745Z,7.50
2018-05-13T07:55:19.999Z,7.40
2018-05-13T07:57:48.350Z,8.10
2018-05-13T08:00:16.561Z,7.90
2018-05-13T08:02:44.951Z,10.90
2018-05-13T08:05:13.271Z,8.17
2018-05-13T08:07:42.365Z,8.33
2018-05-13T08:10:11.537Z,8.00
2018-05-13T08:12:39.809Z,8.00
2018-05-13T08:15:08.100Z,8.27
2018-05-13T08:17:36.357Z,7.93
2018-05-13T08:20:04.648Z,7.20
2018-05-13T08:22:33.301Z,8.97
2018-05-13T08:25:01.695Z,8.03
2018-05-13T08:27:30.265Z,8.20
2018-05-13T08:29:58.714Z,7.73
2018-05-13T08:32:27.255Z,9.00
2018-05-13T08:34:55.700Z,10.23
2018-05-13T08:37:24.875Z,8.83
2018-05-13T08:39:55.268Z,8.23
2018-05-13T08:42:24.673Z,8.07
2018-05-13T08:44:53.110Z,8.50
2018-05-13T08:47:22.638Z,7.53
2018-05-13T08:49:51.896Z,7.60
2018-05-13T08:52:20.705Z,8.43
2018-05-13T08:54:49.597Z,7.63
2018-05-13T08:57:18.883Z,8.40
2018-05-13T08:59:47.911Z,7.77
2018-05-13T09:02:16.199Z,9.03
2018-05-13T09:04:44.478Z,9.70
2018-05-13T09:07:12.840Z,10.30
2018-05-13T09:09:41.994Z,8.50
2018-05-13T09:12:10.359Z,9.00
2018-05-13T09:14:39.606Z,8.73
2018-05-13T09:17:07.907Z,9.83
2018-05-13T09:19:36.296Z,9.90
2018-05-13T09:22:04.569Z,10.20
2018-05-13T09:24:32.848Z,8.60
2018-05-13T09:27:01.122Z,9.23
2018-05-13T09:29:29.546Z,9.60
2018-05-13T09:31:57.869Z,8.30
2018-05-13T09:34:26.183Z,8.67
2018-05-13T09:36:54.438Z,8.20
2018-05-13T09:39:22.757Z,9.13
2018-05-13T09:41:51.021Z,6.90
2018-05-13T09:44:19.328Z,6.90
2018-05-13T09:46:47.693Z,6.50
2018-05-13T09:49:15.929Z,5.80
2018-05-13T09:51:44.214Z,6.33
2018-05-13T09:54:13.241Z,6.00
2018-05-13T09:56:41.543Z,6.13
2018-05-13T09:59:10.592Z,5.30
2018-05-13T10:01:38.922Z,5.90
2018-05-13T10:04:07.991Z,5.20
2018-05-13T10:06:36.269Z,5.03
2018-05-13T10:09:05.446Z,5.77
2018-05-13T10:11:33.717Z,6.47
2018-05-13T10:14:02.102Z,4.10
2018-05-13T10:16:31.197Z,4.67
2018-05-13T10:19:00.297Z,4.90
2018-05-13T10:21:28.576Z,5.00
2018-05-13T10:23:56.898Z,4.27
2018-05-13T10:26:25.909Z,4.90
2018-05-13T10:28:54.277Z,6.30
2018-05-13T10:31:22.598Z,4.60
2018-05-13T10:33:51.016Z,5.07
2018-05-13T10:36:19.326Z,4.13
2018-05-13T10:38:47.640Z,4.40
2018-05-13T10:41:15.936Z,4.10
2018-05-13T10:43:44.206Z,5.37
2018-05-13T10:46:12.555Z,4.40
2018-05-13T10:48:40.838Z,4.80
2018-05-13T10:51:09.113Z,4.57
2018-05-13T10:53:37.398Z,5.13
2018-05-13T10:56:05.677Z,5.00
2018-05-13T10:58:33.944Z,4.73
2018-05-13T11:01:02.976Z,4.30
2018-05-13T11:03:31.254Z,5.40
2018-05-13T11:06:00.391Z,5.20
2018-05-13T11:08:29.460Z,4.30
2018-05-13T11:10:57.715Z,4.37
2018-05-13T11:13:25.982Z,4.30
2018-05-13T11:15:54.281Z,4.97
2018-05-13T11:18:22.542Z,4.10
2018-05-13T11:20:50.821Z,3.90
2018-05-13T11:23:19.095Z,4.13
2018-05-13T11:25:47.416Z,12.90
2018-05-13T11:28:15.687Z,15.87
2018-05-13T11:30:43.966Z,16.33
2018-05-13T11:33:12.265Z,16.77
2018-05-13T11:35:40.550Z,12.03
2018-05-13T11:38:08.859Z,12.30
2018-05-13T11:40:37.146Z,10.70
2018-05-13T11:43:05.430Z,8.70
2018-05-13T11:45:33.710Z,6.43
2018-05-13T11:48:02.873Z,8.50
2018-05-13T11:50:31.147Z,6.47
2018-05-13T11:52:59.468Z,6.60
2018-05-13T11:55:27.772Z,6.10
2018-05-13T11:57:56.126Z,6.90
2018-05-13T12:00:24.422Z,6.33
2018-05-13T12:02:52.692Z,6.50
2018-05-13T12:05:20.986Z,6.00
2018-05-13T12:07:49.272Z,5.80
2018-05-13T12:10:17.718Z,5.27
2018-05-13T12:12:45.987Z,6.10
2018-05-13T12:15:14.334Z,11.60
2018-05-13T12:17:42.584Z,7.20
2018-05-13T12:20:10.840Z,6.70
2018-05-13T12:22:39.134Z,5.47
2018-05-13T12:25:07.398Z,5.57
2018-05-13T12:27:35.701Z,6.70
2018-05-13T12:30:04.810Z,4.80
2018-05-13T12:32:36.433Z,4.10
2018-05-13T12:35:04.706Z,4.73
2018-05-13T12:37:32.943Z,4.60
2018-05-13T12:40:01.736Z,4.50
2018-05-13T12:42:30.058Z,5.33
2018-05-13T12:44:58.329Z,4.93
2018-05-13T12:47:26.611Z,4.30
2018-05-13T12:49:54.877Z,3.70
2018-05-13T12:52:23.347Z,5.00
2018-05-13T12:54:51.624Z,4.43
2018-05-13T12:57:19.883Z,4.40
2018-05-13T12:59:48.176Z,4.60
2018-05-13T13:02:16.477Z,4.27
2018-05-13T13:04:44.813Z,4.20
2018-05-13T13:07:13.077Z,4.03
2018-05-13T13:09:41.418Z,4.33
2018-05-13T13:12:09.728Z,4.00
2018-05-13T13:14:38.787Z,4.50
2018-05-13T13:17:07.858Z,4.20
2018-05-13T13:19:36.129Z,4.00
2018-05-13T13:22:04.584Z,4.40
2018-05-13T13:24:32.780Z,4.43
2018-05-13T13:27:01.085Z,3.90
2018-05-13T13:29:29.340Z,3.70
2018-05-13T13:31:57.630Z,3.47
2018-05-13T13:34:25.906Z,4.23
2018-05-13T13:36:54.202Z,4.37
2018-05-13T13:39:22.460Z,3.87
2018-05-13T13:41:50.762Z,3.60
2018-05-13T13:44:19.045Z,4.07
2018-05-13T13:46:47.321Z,4.17
2018-05-13T13:49:15.595Z,3.80
2018-05-13T13:51:43.886Z,3.70
2018-05-13T13:54:12.145Z,4.37
2018-05-13T13:56:40.423Z,4.30
2018-05-13T13:59:09.109Z,4.40
2018-05-13T14:01:37.410Z,3.87
2018-05-13T14:04:05.668Z,4.00
2018-05-13T14:06:33.950Z,4.20
2018-05-13T14:09:02.226Z,4.10
2018-05-13T14:11:30.570Z,5.10
2018-05-13T14:13:58.842Z,3.80
2018-05-13T14:16:27.195Z,3.60
2018-05-13T14:18:56.447Z,3.83
2018-05-13T14:21:24.727Z,3.80
2018-05-13T14:23:53.257Z,3.80
2018-05-13T14:26:21.503Z,4.20
2018-05-13T14:28:49.775Z,4.33
2018-05-13T14:31:18.064Z,4.17
2018-05-13T14:33:46.335Z,3.70
2018-05-13T14:36:14.623Z,4.00
2018-05-13T14:38:42.891Z,4.20
2018-05-13T14:41:11.213Z,4.50
2018-05-13T14:43:39.478Z,3.83
2018-05-13T14:46:07.759Z,3.60
2018-05-13T14:48:36.075Z,4.60
2018-05-13T14:51:04.379Z,4.13
2018-05-13T14:53:41.069Z,3.90
2018-05-13T14:56:10.902Z,4.77
2018-05-13T14:58:39.437Z,3.97
2018-05-13T15:01:08.710Z,5.00
2018-05-13T15:03:38.214Z,4.33
2018-05-13T15:06:07.500Z,4.40
2018-05-13T15:08:36.679Z,5.10
2018-05-13T15:11:05.027Z,4.17
2018-05-13T15:13:34.182Z,4.37
2018-05-13T15:16:02.746Z,4.33
2018-05-13T15:18:31.221Z,5.87
2018-05-13T15:20:59.694Z,4.00
2018-05-13T15:23:28.344Z,4.83
2018-05-13T15:25:57.085Z,4.10
2018-05-13T15:28:25.385Z,3.87
2018-05-13T15:30:54.053Z,3.67
2018-05-13T15:33:22.568Z,3.90
2018-05-13T15:35:50.858Z,4.53
2018-05-13T15:38:19.513Z,3.63
2018-05-13T15:40:47.944Z,3.97
2018-05-13T15:43:16.404Z,3.50
2018-05-13T15:45:44.891Z,4.20
2018-05-13T15:48:13.480Z,3.97
2018-05-13T15:50:42.723Z,4.40
2018-05-13T15:53:15.461Z,3.93
2018-05-13T15:55:43.895Z,4.17
2018-05-13T15:58:12.782Z,3.60
2018-05-13T16:00:41.298Z,4.00
2018-05-13T16:03:10.465Z,4.10
2018-05-13T16:05:39.019Z,3.87
2018-05-13T16:08:07.884Z,4.07
2018-05-13T16:10:38.263Z,3.40
2018-05-13T16:13:06.872Z,4.50
2018-05-13T16:15:35.148Z,3.47
2018-05-13T16:18:04.897Z,4.83
2018-05-13T16:20:33.343Z,3.83
2018-05-13T16:23:02.551Z,3.73
2018-05-13T16:25:31.713Z,3.83
2018-05-13T16:28:00.091Z,3.73
2018-05-13T16:30:28.314Z,3.73
2018-05-13T16:32:56.649Z,3.90
2018-05-13T16:35:24.903Z,3.40
2018-05-13T16:37:53.171Z,3.47
2018-05-13T16:40:21.457Z,3.87
2018-05-13T16:42:49.792Z,3.60
2018-05-13T16:45:39.297Z,4.17
2018-05-13T16:48:12.815Z,3.67
2018-05-13T16:50:41.724Z,4.00
2018-05-13T16:53:11.083Z,3.97
2018-05-13T16:55:39.435Z,4.10
2018-05-13T16:58:07.797Z,3.60
2018-05-13T17:00:36.095Z,3.67
2018-05-13T17:03:04.370Z,5.17
2018-05-13T17:05:41.255Z,3.77
2018-05-13T17:08:11.779Z,3.83
2018-05-13T17:10:40.185Z,3.93
2018-05-13T17:13:09.252Z,3.50
2018-05-13T17:15:37.647Z,3.97
2018-05-13T17:18:06.312Z,3.57
2018-05-13T17:20:35.158Z,3.57
2018-05-13T17:23:04.503Z,3.33
2018-05-13T17:25:34.987Z,5.70
2018-05-13T17:28:03.270Z,3.20
2018-05-13T17:30:31.575Z,4.00
2018-05-13T17:32:59.875Z,4.30
2018-05-13T17:35:28.343Z,4.03
2018-05-13T17:37:56.697Z,4.23
2018-05-13T17:40:24.985Z,3.80
2018-05-13T17:42:53.300Z,4.13
2018-05-13T17:45:21.770Z,4.00
2018-05-13T17:47:50.215Z,3.63
2018-05-13T17:50:18.568Z,3.63
2018-05-13T17:52:47.881Z,3.77
2018-05-13T17:55:18.291Z,4.60
2018-05-13T17:57:46.598Z,5.97
2018-05-13T18:00:14.884Z,4.17
2018-05-13T18:02:43.304Z,4.27
2018-05-13T18:05:11.647Z,4.13
2018-05-13T18:07:40.470Z,4.00
2018-05-13T18:10:08.755Z,5.80
2018-05-13T18:12:37.046Z,4.50
2018-05-13T18:15:06.119Z,4.80
2018-05-13T18:17:34.369Z,4.00
2018-05-13T18:20:02.715Z,5.13
2018-05-13T18:22:31.731Z,3.83
2018-05-13T18:25:00.102Z,4.37
2018-05-13T18:27:28.731Z,4.03
2018-05-13T18:29:57.857Z,6.70
2018-05-13T18:32:27.260Z,4.77
2018-05-13T18:34:55.747Z,4.30
2018-05-13T18:37:25.059Z,4.03
2018-05-13T18:39:55.784Z,4.07
2018-05-13T18:42:24.261Z,4.37
2018-05-13T18:44:52.567Z,4.17
2018-05-13T18:47:20.861Z,4.30
2018-05-13T18:49:49.336Z,4.27
2018-05-13T18:52:18.661Z,5.17
2018-05-13T18:54:47.048Z,4.70
2018-05-13T18:57:15.347Z,4.00
2018-05-13T18:59:43.619Z,3.50
2018-05-13T19:02:11.903Z,5.03
2018-05-13T19:04:40.506Z,3.70
2018-05-13T19:07:09.273Z,3.83
2018-05-13T19:09:37.631Z,3.80
2018-05-13T19:12:07.928Z,4.40
2018-05-13T19:14:36.287Z,3.43
2018-05-13T19:17:04.639Z,4.03
2018-05-13T19:19:32.888Z,4.23
2018-05-13T19:22:01.196Z,4.33
2018-05-13T19:24:29.473Z,6.80
2018-05-13T19:26:57.793Z,4.23
2018-05-13T19:29:26.394Z,4.27
2018-05-13T19:31:54.775Z,4.30
2018-05-13T19:34:23.048Z,5.30
2018-05-13T19:36:51.441Z,3.90
2018-05-13T19:39:19.720Z,4.23
2018-05-13T19:41:48.049Z,4.00
2018-05-13T19:44:16.336Z,4.10
2018-05-13T19:46:45.719Z,4.13
2018-05-13T19:49:13.977Z,4.10
2018-05-13T19:51:42.498Z,4.63
2018-05-13T19:54:11.551Z,4.33
2018-05-13T19:56:39.858Z,8.03
2018-05-13T19:59:08.146Z,5.27
2018-05-13T20:01:37.243Z,4.60
2018-05-13T20:04:05.513Z,5.07
2018-05-13T20:06:34.576Z,4.73
2018-05-13T20:09:03.002Z,4.97
2018-05-13T20:11:31.272Z,4.20
2018-05-13T20:13:59.978Z,4.70
2018-05-13T20:16:28.431Z,5.40
2018-05-13T20:18:56.905Z,5.17
2018-05-13T20:21:26.383Z,5.53
2018-05-13T20:23:54.758Z,4.33
2018-05-13T20:26:23.199Z,5.20
2018-05-13T20:28:51.728Z,8.00
2018-05-13T20:31:20.198Z,5.20
2018-05-13T20:33:49.389Z,4.10
2018-05-13T20:36:17.666Z,6.80
2018-05-13T20:38:45.955Z,5.90
2018-05-13T20:41:14.212Z,5.17
2018-05-13T20:43:42.512Z,5.40
2018-05-13T20:46:10.785Z,5.40
2018-05-13T20:48:39.100Z,5.00
2018-05-13T20:51:07.364Z,5.60
2018-05-13T20:53:35.691Z,5.10
2018-05-13T20:56:03.946Z,5.90
2018-05-13T20:58:32.231Z,5.57
2018-05-13T21:01:01.296Z,9.03
2018-05-13T21:03:29.631Z,5.57
2018-05-13T21:05:59.432Z,6.00
2018-05-13T21:08:28.509Z,5.30
2018-05-13T21:10:56.780Z,6.00
2018-05-13T21:13:25.095Z,6.03
2018-05-13T21:15:54.134Z,6.93
2018-05-13T21:18:22.407Z,6.43
2018-05-13T21:20:50.685Z,5.40
2018-05-13T21:23:18.985Z,6.13
2018-05-13T21:25:47.253Z,5.77
2018-05-13T21:28:15.507Z,6.20
2018-05-13T21:30:43.820Z,5.90
2018-05-13T21:33:12.097Z,5.90
2018-05-13T21:35:40.391Z,5.50
2018-05-13T21:38:08.637Z,6.30
2018-05-13T21:40:36.934Z,5.40
2018-05-13T21:43:05.222Z,6.33
2018-05-13T21:45:33.510Z,5.40
2018-05-13T21:48:02.535Z,6.30
2018-05-13T21:50:30.831Z,6.20
2018-05-13T21:52:59.091Z,5.50
2018-05-13T21:55:27.399Z,5.60
2018-05-13T21:57:55.672Z,5.80
2018-05-13T22:00:24.008Z,6.10
2018-05-13T22:02:52.261Z,4.93
2018-05-13T22:05:20.547Z,5.60
2018-05-13T22:07:50.085Z,6.63
2018-05-13T22:10:18.447Z,5.93
2018-05-13T22:12:47.471Z,5.90
2018-05-13T22:15:15.756Z,6.20
2018-05-13T22:17:44.043Z,5.30
2018-05-13T22:20:12.389Z,6.33
2018-05-13T22:22:40.653Z,6.27
2018-05-13T22:25:08.923Z,6.10
2018-05-13T22:27:37.950Z,6.27
2018-05-13T22:30:06.255Z,5.07
2018-05-13T22:32:34.522Z,5.83
2018-05-13T22:35:02.808Z,5.77
2018-05-13T22:37:31.077Z,6.00
2018-05-13T22:39:59.381Z,6.30
2018-05-13T22:42:27.653Z,7.27
2018-05-13T22:44:55.938Z,7.00
2018-05-13T22:47:24.187Z,5.93
2018-05-13T22:49:52.472Z,6.17
2018-05-13T22:52:20.728Z,6.07
2018-05-13T22:54:49.070Z,5.97
2018-05-13T22:57:18.090Z,5.73
2018-05-13T22:59:46.347Z,6.03
2018-05-13T23:02:15.398Z,7.93
2018-05-13T23:04:43.649Z,5.90
2018-05-13T23:07:11.942Z,6.97
2018-05-13T23:09:40.191Z,6.03
2018-05-13T23:12:08.487Z,5.53
2018-05-13T23:14:36.745Z,6.50
2018-05-13T23:17:05.797Z,6.23
2018-05-13T23:19:34.056Z,5.83
2018-05-13T23:22:02.316Z,5.80
2018-05-13T23:24:30.609Z,7.17
2018-05-13T23:26:58.907Z,6.10
2018-05-13T23:29:27.159Z,5.90
2018-05-13T23:31:55.422Z,5.90
2018-05-13T23:34:23.792Z,8.33
2018-05-13T23:36:51.970Z,5.90
2018-05-13T23:39:20.293Z,6.10
2018-05-13T23:41:48.570Z,6.60
2018-05-13T23:44:16.854Z,6.80
2018-05-13T23:46:45.159Z,6.33
2018-05-13T23:49:13.355Z,5.80
2018-05-13T23:51:41.634Z,6.80
2018-05-13T23:54:09.902Z,5.57
2018-05-13T23:56:38.189Z,6.00
2018-05-13T23:59:06.449Z,6.20
